createdAt,value
2023-01-21T00:01:19.704Z,27.25
2023-01-21T00:03:46.955Z,23.02
2023-01-21T00:06:18.383Z,23.45
2023-01-21T00:08:48.382Z,14.93
2023-01-21T00:11:16.069Z,13.02
2023-01-21T00:13:44.406Z,15.63
2023-01-21T00:16:12.062Z,8.70
2023-01-21T00:18:40.051Z,11.55
2023-01-21T00:21:07.549Z,8.90
2023-01-21T00:23:35.290Z,8.07
2023-01-21T00:26:04.933Z,9.35
2023-01-21T00:28:34.961Z,7.63
2023-01-21T00:31:07.347Z,9.07
2023-01-21T00:33:35.619Z,8.25
2023-01-21T00:36:05.084Z,8.70
2023-01-21T00:38:32.567Z,5.32
2023-01-21T00:41:04.427Z,6.10
2023-01-21T00:43:32.267Z,8.20
2023-01-21T00:45:59.464Z,4.72
2023-01-21T00:48:28.392Z,6.20
2023-01-21T00:51:00.876Z,5.25
2023-01-21T00:53:30.703Z,5.25
2023-01-21T00:56:06.977Z,5.38
2023-01-21T00:58:34.686Z,4.82
2023-01-21T01:01:19.484Z,5.68
2023-01-21T01:03:48.001Z,5.85
2023-01-21T01:06:25.379Z,3.65
2023-01-21T01:08:58.027Z,5.25
2023-01-21T01:11:28.971Z,6.32
2023-01-21T01:14:00.113Z,3.67
2023-01-21T01:16:27.528Z,4.30
2023-01-21T01:18:56.030Z,8.85
2023-01-21T01:21:23.879Z,8.88
2023-01-21T01:23:54.877Z,9.73
2023-01-21T01:26:27.778Z,9.45
2023-01-21T01:28:55.259Z,9.07
2023-01-21T01:31:28.344Z,9.63
2023-01-21T01:33:58.522Z,9.05
2023-01-21T01:36:26.198Z,6.80
2023-01-21T01:38:54.289Z,7.95
2023-01-21T01:41:30.286Z,9.73
2023-01-21T01:44:01.666Z,7.68
2023-01-21T01:46:34.181Z,9.85
2023-01-21T01:49:23.397Z,8.68
2023-01-21T01:51:57.479Z,9.52
2023-01-21T01:54:38.630Z,10.18
2023-01-21T01:57:12.141Z,5.55
2023-01-21T01:59:52.167Z,9.15
2023-01-21T02:02:23.875Z,9.35
2023-01-21T02:04:56.200Z,9.48
2023-01-21T02:07:34.346Z,7.32
2023-01-21T02:10:05.153Z,8.60
2023-01-21T02:12:33.411Z,8.23
2023-01-21T02:15:01.356Z,10.85
2023-01-21T02:17:37.530Z,6.72
2023-01-21T02:20:05.275Z,10.23
2023-01-21T02:22:50.859Z,8.38
2023-01-21T02:25:41.767Z,8.10
2023-01-21T02:28:47.208Z,7.60
2023-01-21T02:31:29.059Z,8.63
2023-01-21T02:34:02.412Z,8.57
2023-01-21T02:36:51.176Z,9.68
2023-01-21T02:39:24.099Z,10.00
2023-01-21T02:42:07.336Z,6.97
2023-01-21T02:44:39.906Z,10.48
2023-01-21T02:47:31.265Z,7.47
2023-01-21T02:50:04.284Z,7.70
2023-01-21T02:52:31.439Z,9.55
2023-01-21T02:55:01.573Z,8.77
2023-01-21T02:57:50.741Z,12.63
2023-01-21T03:00:31.274Z,6.95
2023-01-21T03:02:58.838Z,7.07
2023-01-21T03:05:59.554Z,8.30
2023-01-21T03:09:08.347Z,7.50
2023-01-21T03:11:35.779Z,8.65
2023-01-21T03:14:40.410Z,7.28
2023-01-21T03:17:19.228Z,11.13
2023-01-21T03:19:53.323Z,7.13
2023-01-21T03:22:24.960Z,8.07
2023-01-21T03:24:54.766Z,9.05
2023-01-21T03:27:25.360Z,9.48
2023-01-21T03:29:57.577Z,10.27
2023-01-21T03:32:28.468Z,8.52
2023-01-21T03:34:56.893Z,10.90
2023-01-21T03:37:40.069Z,8.25
2023-01-21T03:40:19.631Z,8.18
2023-01-21T03:42:50.764Z,7.70
2023-01-21T03:45:26.631Z,9.30
2023-01-21T03:47:58.916Z,10.35
2023-01-21T03:50:30.078Z,6.18
2023-01-21T03:52:57.557Z,7.80
2023-01-21T03:55:24.680Z,6.88
2023-01-21T03:57:51.781Z,8.27
2023-01-21T04:00:19.611Z,7.65
2023-01-21T04:02:49.904Z,6.97
2023-01-21T04:05:17.309Z,5.88
2023-01-21T04:07:44.493Z,7.65
2023-01-21T04:10:12.535Z,6.57
2023-01-21T04:12:40.843Z,6.97
2023-01-21T04:15:08.820Z,7.65
2023-01-21T04:17:38.034Z,7.03
2023-01-21T04:20:08.850Z,7.55
2023-01-21T04:22:36.467Z,8.00
2023-01-21T04:25:06.731Z,7.97
2023-01-21T04:27:33.708Z,7.30
2023-01-21T04:30:01.085Z,12.27
2023-01-21T04:32:28.632Z,7.90
2023-01-21T04:34:55.955Z,7.72
2023-01-21T04:37:23.501Z,7.60
2023-01-21T04:39:51.018Z,8.85
2023-01-21T04:42:18.175Z,9.20
2023-01-21T04:44:45.717Z,11.13
2023-01-21T04:47:15.603Z,7.95
2023-01-21T04:49:45.750Z,7.47
2023-01-21T04:52:12.814Z,7.07
2023-01-21T04:54:42.142Z,7.63
2023-01-21T04:57:11.888Z,6.97
2023-01-21T04:59:39.012Z,8.85
2023-01-21T05:02:08.654Z,8.82
2023-01-21T05:04:35.906Z,10.50
2023-01-21T05:07:03.317Z,8.40
2023-01-21T05:09:30.609Z,8.35
2023-01-21T05:11:59.650Z,7.10
2023-01-21T05:14:26.672Z,5.65
2023-01-21T05:16:53.766Z,9.35
2023-01-21T05:19:21.099Z,7.70
2023-01-21T05:21:48.068Z,8.50
2023-01-21T05:24:15.047Z,10.68
2023-01-21T05:26:42.197Z,7.80
2023-01-21T05:29:09.529Z,9.02
2023-01-21T05:31:39.428Z,8.70
2023-01-21T05:34:06.930Z,9.00
2023-01-21T05:36:33.957Z,10.13
2023-01-21T05:39:01.467Z,10.57
2023-01-21T05:41:30.377Z,14.82
2023-01-21T05:43:57.942Z,13.63
2023-01-21T05:46:25.187Z,12.73
2023-01-21T05:48:52.645Z,15.50
2023-01-21T05:51:19.714Z,14.45
2023-01-21T05:53:46.818Z,13.90
2023-01-21T05:56:13.866Z,15.95
2023-01-21T05:58:41.441Z,15.05
2023-01-21T06:01:08.487Z,15.40
2023-01-21T06:03:36.601Z,18.60
2023-01-21T06:06:07.492Z,22.10
2023-01-21T06:08:34.732Z,22.75
2023-01-21T06:11:02.689Z,18.30
2023-01-21T06:13:31.172Z,21.67
2023-01-21T06:16:01.938Z,21.48
2023-01-21T06:18:32.146Z,23.42
2023-01-21T06:21:00.858Z,21.55
2023-01-21T06:23:28.552Z,21.15
2023-01-21T06:26:03.015Z,24.90
2023-01-21T06:31:41.243Z,25.27
2023-01-21T06:34:15.414Z,18.70
2023-01-21T06:36:44.239Z,24.73
2023-01-21T06:39:11.885Z,25.98
2023-01-21T06:41:39.448Z,24.83
2023-01-21T06:44:07.155Z,22.42
2023-01-21T06:46:43.367Z,23.02
2023-01-21T06:49:31.279Z,23.83
2023-01-21T06:52:23.547Z,24.10
2023-01-21T06:54:59.641Z,28.83
2023-01-21T06:57:30.970Z,20.27
2023-01-21T06:59:58.711Z,22.85
2023-01-21T07:02:31.017Z,21.52
2023-01-21T07:05:01.179Z,20.35
2023-01-21T07:07:28.303Z,27.65
2023-01-21T07:09:55.452Z,19.00
2023-01-21T07:12:22.734Z,24.95
2023-01-21T07:14:49.700Z,23.35
2023-01-21T07:17:17.070Z,23.35
2023-01-21T07:19:51.394Z,22.17
2023-01-21T07:22:22.113Z,22.92
2023-01-21T07:24:49.601Z,21.67
2023-01-21T07:27:17.095Z,20.00
2023-01-21T07:29:44.238Z,22.70
2023-01-21T07:32:13.873Z,20.38
2023-01-21T07:34:43.667Z,22.40
2023-01-21T07:37:11.284Z,19.45
2023-01-21T07:39:55.091Z,27.90
2023-01-21T07:42:28.802Z,25.70
2023-01-21T07:45:02.835Z,24.27
2023-01-21T07:47:37.523Z,21.90
2023-01-21T07:50:11.262Z,21.58
2023-01-21T07:52:43.063Z,23.40
2023-01-21T07:55:16.665Z,18.27
2023-01-21T07:57:44.081Z,21.98
2023-01-21T08:00:11.734Z,22.38
2023-01-21T08:02:39.574Z,21.83
2023-01-21T08:05:07.703Z,21.25
2023-01-21T08:07:38.809Z,25.83
2023-01-21T08:10:09.860Z,25.92
2023-01-21T08:12:41.611Z,22.45
2023-01-21T08:15:16.732Z,25.08
2023-01-21T08:17:51.091Z,20.55
2023-01-21T08:20:46.798Z,21.23
2023-01-21T08:23:37.714Z,23.05
2023-01-21T08:26:08.913Z,24.85
2023-01-21T08:28:42.693Z,26.73
2023-01-21T08:31:20.552Z,24.52
2023-01-21T08:33:48.052Z,25.45
2023-01-21T08:36:15.754Z,23.17
2023-01-21T08:38:48.420Z,27.27
2023-01-21T08:41:19.078Z,20.10
2023-01-21T08:43:56.528Z,22.95
2023-01-21T08:46:29.374Z,22.25
2023-01-21T08:48:56.677Z,20.52
2023-01-21T08:51:24.452Z,20.77
2023-01-21T08:53:53.615Z,20.80
2023-01-21T08:56:21.185Z,25.65
2023-01-21T08:58:50.562Z,21.50
2023-01-21T09:01:18.101Z,23.35
2023-01-21T09:03:45.354Z,20.35
2023-01-21T09:06:12.692Z,23.15
2023-01-21T09:08:43.355Z,18.67
2023-01-21T09:11:14.009Z,20.63
2023-01-21T09:13:43.165Z,19.95
2023-01-21T09:16:16.130Z,17.58
2023-01-21T09:18:43.877Z,19.52
2023-01-21T09:21:20.825Z,18.23
2023-01-21T09:23:48.288Z,13.43
2023-01-21T09:26:20.793Z,14.68
2023-01-21T09:31:26.416Z,11.15
2023-01-21T09:33:57.109Z,9.27
2023-01-21T09:36:29.260Z,10.88
2023-01-21T09:38:56.376Z,9.15
2023-01-21T09:41:31.499Z,8.57
2023-01-21T09:44:20.472Z,13.13
2023-01-21T09:47:06.621Z,9.52
2023-01-21T09:49:43.380Z,11.68
2023-01-21T09:52:23.614Z,10.68
2023-01-21T09:54:52.785Z,9.35
2023-01-21T09:57:37.304Z,10.73
2023-01-21T10:00:23.799Z,7.43
2023-01-21T10:03:14.874Z,11.38
2023-01-21T10:06:00.987Z,8.43
2023-01-21T10:09:04.860Z,11.07
2023-01-21T10:11:38.364Z,9.18
2023-01-21T10:14:30.017Z,11.10
2023-01-21T10:17:18.295Z,13.18
2023-01-21T10:19:55.366Z,11.10
2023-01-21T10:22:34.758Z,13.30
2023-01-21T10:25:13.863Z,10.77
2023-01-21T10:27:42.797Z,16.70
2023-01-21T10:30:23.906Z,12.52
2023-01-21T10:32:53.232Z,11.32
2023-01-21T10:35:47.957Z,17.17
2023-01-21T10:38:34.043Z,11.57
2023-01-21T10:41:33.524Z,13.13
2023-01-21T10:44:14.089Z,16.55
2023-01-21T10:46:50.104Z,9.63
2023-01-21T10:49:50.268Z,15.48
2023-01-21T10:52:52.079Z,15.70
2023-01-21T10:55:34.366Z,13.88
2023-01-21T10:58:14.616Z,12.25
2023-01-21T11:00:47.450Z,14.95
2023-01-21T11:03:25.518Z,12.82
2023-01-21T11:05:53.165Z,12.88
2023-01-21T11:08:26.051Z,10.70
2023-01-21T11:10:55.414Z,6.40
2023-01-21T11:13:23.667Z,12.05
2023-01-21T11:15:57.296Z,7.07
2023-01-21T11:18:40.794Z,5.97
2023-01-21T11:21:23.320Z,7.85
2023-01-21T11:26:34.072Z,8.23
2023-01-21T11:29:09.289Z,10.20
2023-01-21T11:31:37.163Z,10.57
2023-01-21T11:34:18.603Z,5.90
2023-01-21T11:37:06.906Z,10.30
2023-01-21T11:39:52.268Z,7.68
2023-01-21T11:42:20.029Z,7.53
2023-01-21T11:44:55.616Z,6.13
2023-01-21T11:47:38.709Z,5.07
2023-01-21T11:50:13.142Z,6.82
2023-01-21T11:52:40.232Z,5.25
2023-01-21T11:55:22.720Z,6.03
2023-01-21T11:57:53.247Z,7.97
2023-01-21T12:00:25.265Z,5.55
2023-01-21T12:02:56.902Z,4.38
2023-01-21T12:05:34.777Z,6.95
2023-01-21T12:08:04.756Z,5.60
2023-01-21T12:13:37.412Z,5.80
2023-01-21T12:16:20.853Z,7.72
2023-01-21T12:19:10.033Z,5.68
2023-01-21T12:21:56.822Z,8.30
2023-01-21T12:24:39.112Z,5.30
2023-01-21T12:27:32.708Z,4.93
2023-01-21T12:30:21.469Z,6.05
2023-01-21T12:35:36.633Z,6.93
2023-01-21T12:38:11.022Z,5.20
2023-01-21T12:40:45.925Z,3.53
2023-01-21T12:43:20.918Z,4.05
2023-01-21T12:46:11.793Z,5.40
2023-01-21T12:48:47.025Z,4.70
2023-01-21T12:51:23.680Z,6.13
2023-01-21T12:54:21.365Z,6.05
2023-01-21T12:56:57.271Z,7.95
2023-01-21T12:59:51.449Z,4.88
2023-01-21T13:02:26.308Z,6.85
2023-01-21T13:05:05.409Z,5.85
2023-01-21T13:07:47.760Z,6.93
2023-01-21T13:10:17.700Z,4.38
2023-01-21T13:12:49.902Z,5.20
2023-01-21T13:15:20.927Z,4.13
2023-01-21T13:17:55.560Z,4.85
2023-01-21T13:20:23.925Z,3.65
2023-01-21T13:23:09.460Z,5.72
2023-01-21T13:25:59.323Z,4.55
2023-01-21T13:28:45.848Z,3.53
2023-01-21T13:31:34.056Z,4.70
2023-01-21T13:34:13.045Z,6.80
2023-01-21T13:37:02.968Z,5.07
2023-01-21T13:42:16.261Z,3.47
2023-01-21T13:45:05.384Z,2.85
2023-01-21T13:47:49.398Z,7.65
2023-01-21T13:50:41.916Z,4.10
2023-01-21T13:53:24.506Z,7.50
2023-01-21T13:55:58.083Z,4.55
2023-01-21T13:58:41.062Z,4.63
2023-01-21T14:01:25.090Z,3.80
2023-01-21T14:04:04.793Z,5.85
2023-01-21T14:06:33.057Z,4.97
2023-01-21T14:09:29.634Z,13.90
2023-01-21T14:11:58.296Z,3.55
2023-01-21T14:14:49.210Z,4.90
2023-01-21T14:17:19.133Z,5.68
2023-01-21T14:20:18.222Z,2.75
2023-01-21T14:23:04.175Z,5.03
2023-01-21T14:26:08.891Z,3.67
2023-01-21T14:28:51.682Z,4.80
2023-01-21T14:31:24.180Z,5.53
2023-01-21T14:33:54.162Z,4.90
2023-01-21T14:36:40.803Z,4.93
2023-01-21T14:39:31.833Z,4.05
2023-01-21T14:42:13.319Z,3.83
2023-01-21T14:44:49.546Z,6.10
2023-01-21T14:47:19.897Z,3.78
2023-01-21T14:49:54.207Z,3.72
2023-01-21T14:52:43.939Z,5.05
2023-01-21T14:55:27.850Z,5.72
2023-01-21T14:57:57.350Z,4.10
2023-01-21T15:00:30.189Z,5.35
2023-01-21T15:03:29.845Z,4.05
2023-01-21T15:06:09.359Z,4.57
2023-01-21T15:08:46.884Z,5.22
2023-01-21T15:11:37.659Z,4.15
2023-01-21T15:14:21.949Z,5.70
2023-01-21T15:16:49.361Z,4.50
2023-01-21T15:19:23.060Z,3.40
2023-01-21T15:22:10.216Z,4.57
2023-01-21T15:24:37.499Z,6.88
2023-01-21T15:27:28.313Z,4.00
2023-01-21T15:30:00.570Z,4.30
2023-01-21T15:32:32.403Z,6.72
2023-01-21T15:35:22.732Z,4.22
2023-01-21T15:38:02.953Z,2.67
2023-01-21T15:41:05.827Z,4.85
2023-01-21T15:43:56.707Z,7.53
2023-01-21T15:46:32.748Z,4.25
2023-01-21T15:49:13.970Z,3.17
2023-01-21T15:52:06.063Z,6.53
2023-01-21T15:54:33.614Z,5.28
2023-01-21T16:00:10.213Z,4.30
2023-01-21T16:02:59.351Z,4.80
2023-01-21T16:05:48.158Z,5.13
2023-01-21T16:08:44.121Z,4.07
2023-01-21T16:11:41.140Z,6.30
2023-01-21T16:14:14.524Z,6.72
2023-01-21T16:17:15.616Z,4.70
2023-01-21T16:19:46.150Z,4.38
2023-01-21T16:22:19.067Z,9.38
2023-01-21T16:24:52.376Z,4.35
2023-01-21T16:27:28.404Z,7.70
2023-01-21T16:30:00.410Z,4.10
2023-01-21T16:32:27.991Z,3.13
2023-01-21T16:34:55.032Z,6.25
2023-01-21T16:37:27.299Z,7.38
2023-01-21T16:39:58.268Z,4.32
2023-01-21T16:42:33.107Z,6.30
2023-01-21T16:45:01.049Z,3.78
2023-01-21T16:47:36.414Z,7.53
2023-01-21T16:50:05.593Z,6.18
2023-01-21T16:52:32.995Z,7.70
2023-01-21T16:55:00.267Z,6.22
2023-01-21T16:57:31.811Z,6.10
2023-01-21T17:00:02.190Z,6.45
2023-01-21T17:02:32.840Z,5.15
2023-01-21T17:05:04.597Z,13.00
2023-01-21T17:07:34.991Z,4.90
2023-01-21T17:12:30.870Z,5.43
2023-01-21T17:15:02.024Z,10.27
2023-01-21T17:17:34.333Z,7.40
2023-01-21T17:20:01.984Z,6.10
2023-01-21T17:22:33.418Z,9.20
2023-01-21T17:25:00.948Z,9.35
2023-01-21T17:27:28.837Z,7.18
2023-01-21T17:30:25.344Z,5.35
2023-01-21T17:32:58.421Z,9.57
2023-01-21T17:35:27.384Z,9.32
2023-01-21T17:37:54.997Z,11.15
2023-01-21T17:40:45.540Z,4.55
2023-01-21T17:43:26.058Z,8.68
2023-01-21T17:45:55.500Z,9.05
2023-01-21T17:48:37.765Z,6.15
2023-01-21T17:51:31.873Z,8.52
2023-01-21T17:54:06.453Z,6.40
2023-01-21T17:56:38.102Z,5.10
2023-01-21T17:59:25.979Z,8.88
2023-01-21T18:01:56.216Z,6.70
2023-01-21T18:04:23.372Z,5.38
2023-01-21T18:06:53.057Z,7.30
2023-01-21T18:09:28.029Z,7.60
2023-01-21T18:11:57.846Z,5.35
2023-01-21T18:14:26.295Z,9.18
2023-01-21T18:16:54.335Z,6.30
2023-01-21T18:19:36.015Z,9.38
2023-01-21T18:22:06.159Z,7.20
2023-01-21T18:24:35.481Z,7.47
2023-01-21T18:27:03.248Z,7.18
2023-01-21T18:29:31.054Z,7.00
2023-01-21T18:31:58.875Z,7.78
2023-01-21T18:34:26.352Z,6.05
2023-01-21T18:37:00.546Z,5.28
2023-01-21T18:39:27.666Z,4.63
2023-01-21T18:41:54.661Z,8.27
2023-01-21T18:44:21.888Z,5.35
2023-01-21T18:46:49.436Z,5.05
2023-01-21T18:49:18.763Z,7.35
2023-01-21T18:51:46.372Z,3.72
2023-01-21T18:54:15.877Z,3.85
2023-01-21T18:56:44.232Z,5.75
2023-01-21T18:59:19.224Z,5.47
2023-01-21T19:01:46.280Z,6.35
2023-01-21T19:04:15.821Z,4.90
2023-01-21T19:06:43.192Z,5.53
2023-01-21T19:09:35.726Z,5.38
2023-01-21T19:12:03.118Z,9.85
2023-01-21T19:14:30.180Z,4.57
2023-01-21T19:16:57.115Z,5.65
2023-01-21T19:19:25.497Z,13.60
2023-01-21T19:21:53.362Z,5.82
2023-01-21T19:24:20.784Z,7.97
2023-01-21T19:26:47.908Z,2.97
2023-01-21T19:29:16.509Z,5.47
2023-01-21T19:31:43.666Z,6.10
2023-01-21T19:34:10.694Z,8.95
2023-01-21T19:36:39.306Z,10.88
2023-01-21T19:39:19.243Z,8.65
2023-01-21T19:41:46.375Z,10.85
2023-01-21T19:44:13.513Z,7.40
2023-01-21T19:46:40.825Z,10.13
2023-01-21T19:49:16.159Z,6.57
2023-01-21T19:51:44.296Z,16.80
2023-01-21T19:54:11.563Z,4.88
2023-01-21T19:56:39.021Z,12.38
2023-01-21T19:59:06.214Z,5.78
2023-01-21T20:01:33.670Z,8.95
2023-01-21T20:04:03.758Z,6.35
2023-01-21T20:06:38.198Z,8.20
2023-01-21T20:09:14.688Z,6.25
2023-01-21T20:11:42.655Z,6.88
2023-01-21T20:14:10.415Z,6.15
2023-01-21T20:16:47.702Z,10.48
2023-01-21T20:19:17.696Z,6.03
2023-01-21T20:24:30.139Z,6.57
2023-01-21T20:26:58.749Z,5.35
2023-01-21T20:29:27.046Z,3.78
2023-01-21T20:31:54.535Z,3.60
2023-01-21T20:34:21.751Z,7.10
2023-01-21T20:36:50.868Z,9.40
2023-01-21T20:39:17.895Z,6.00
2023-01-21T20:41:44.900Z,9.15
2023-01-21T20:44:12.083Z,3.80
2023-01-21T20:46:43.356Z,4.82
2023-01-21T20:49:11.847Z,3.17
2023-01-21T20:51:39.339Z,4.63
2023-01-21T20:54:06.811Z,4.72
2023-01-21T20:56:33.881Z,9.07
2023-01-21T20:59:01.135Z,5.90
2023-01-21T21:01:29.242Z,1.05
2023-01-21T21:03:56.138Z,3.85
2023-01-21T21:06:26.020Z,3.00
2023-01-21T21:08:53.271Z,8.30
2023-01-21T21:11:20.650Z,6.07
2023-01-21T21:13:51.812Z,6.10
2023-01-21T21:16:28.668Z,4.25
2023-01-21T21:18:56.386Z,4.25
2023-01-21T21:21:24.089Z,4.63
2023-01-21T21:23:52.648Z,4.47
2023-01-21T21:26:24.246Z,3.95
2023-01-21T21:28:57.327Z,3.10
2023-01-21T21:31:26.069Z,5.07
2023-01-21T21:33:53.621Z,6.07
2023-01-21T21:36:23.808Z,3.20
2023-01-21T21:38:52.462Z,2.00
2023-01-21T21:41:41.191Z,6.03
2023-01-21T21:44:09.394Z,5.15
2023-01-21T21:46:55.998Z,2.80
2023-01-21T21:49:23.355Z,3.42
2023-01-21T21:51:50.405Z,3.38
2023-01-21T21:54:18.497Z,3.40
2023-01-21T21:56:45.900Z,3.47
2023-01-21T21:59:13.341Z,5.75
2023-01-21T22:01:42.633Z,2.20
2023-01-21T22:04:09.781Z,4.20
2023-01-21T22:06:37.384Z,4.63
2023-01-21T22:09:05.339Z,2.45
2023-01-21T22:11:33.089Z,3.08
2023-01-21T22:14:04.328Z,1.73
2023-01-21T22:16:32.388Z,4.80
2023-01-21T22:19:00.331Z,3.03
2023-01-21T22:21:34.227Z,2.45
2023-01-21T22:24:08.428Z,3.20
2023-01-21T22:26:36.041Z,2.33
2023-01-21T22:29:04.242Z,3.30
2023-01-21T22:31:32.485Z,4.10
2023-01-21T22:34:02.953Z,3.40
2023-01-21T22:36:31.230Z,5.03
2023-01-21T22:38:58.798Z,3.55
2023-01-21T22:41:26.205Z,3.30
2023-01-21T22:43:54.416Z,3.08
2023-01-21T22:46:27.123Z,5.65
2023-01-21T22:48:54.873Z,5.05
2023-01-21T22:51:23.178Z,3.80
2023-01-21T22:53:51.287Z,7.40
2023-01-21T22:56:23.413Z,4.13
2023-01-21T22:58:50.826Z,5.60
2023-01-21T23:01:29.545Z,4.15
2023-01-21T23:04:00.372Z,2.75
2023-01-21T23:06:30.468Z,4.07
2023-01-21T23:08:57.847Z,4.13
2023-01-21T23:11:25.292Z,4.30
2023-01-21T23:13:54.149Z,4.57
2023-01-21T23:16:21.437Z,3.97
2023-01-21T23:18:49.064Z,4.45
2023-01-21T23:21:19.312Z,3.25
2023-01-21T23:23:46.851Z,2.90
2023-01-21T23:26:14.747Z,3.35
2023-01-21T23:28:43.067Z,4.72
2023-01-21T23:31:14.047Z,4.85
2023-01-21T23:33:41.820Z,3.33
2023-01-21T23:36:12.931Z,4.05
2023-01-21T23:38:41.399Z,4.88
2023-01-21T23:41:10.532Z,3.83
2023-01-21T23:43:38.326Z,5.68
2023-01-21T23:46:07.191Z,3.70
2023-01-21T23:48:34.319Z,6.22
2023-01-21T23:51:03.906Z,5.20
2023-01-21T23:53:31.936Z,6.10
2023-01-21T23:56:14.694Z,5.90
2023-01-21T23:58:41.948Z,5.65
